sensor_id;sensor_type;location;lat;lon;timestamp;pressure;altitude;pressure_sealevel;temperature;humidity
84443;BME280;74681;0.000;0.000;2024-01-27T00:02:24;99206.84;;;22.24;50.73
84443;BME280;74681;0.000;0.000;2024-01-27T00:04:51;99217.78;;;22.24;50.71
84443;BME280;74681;0.000;0.000;2024-01-27T00:07:16;99230.66;;;22.24;50.67
84443;BME280;74681;0.000;0.000;2024-01-27T00:09:42;99225.19;;;22.24;50.55
84443;BME280;74681;0.000;0.000;2024-01-27T00:12:08;99230.66;;;22.24;50.65
84443;BME280;74681;0.000;0.000;2024-01-27T00:14:33;99235.31;;;22.23;50.71
84443;BME280;74681;0.000;0.000;2024-01-27T00:16:59;99244.31;;;22.24;50.64
84443;BME280;74681;0.000;0.000;2024-01-27T00:19:24;99248.97;;;22.23;50.50
84443;BME280;74681;0.000;0.000;2024-01-27T00:21:49;99245.41;;;22.23;50.70
84443;BME280;74681;0.000;0.000;2024-01-27T00:24:15;99243.81;;;22.22;50.47
84443;BME280;74681;0.000;0.000;2024-01-27T00:26:41;99250.06;;;22.22;50.67
84443;BME280;74681;0.000;0.000;2024-01-27T00:29:06;99250.88;;;22.23;50.62
84443;BME280;74681;0.000;0.000;2024-01-27T00:31:32;99247.34;;;22.22;50.52
84443;BME280;74681;0.000;0.000;2024-01-27T00:33:57;99250.88;;;22.23;50.52
84443;BME280;74681;0.000;0.000;2024-01-27T00:36:23;99256.34;;;22.23;50.63
84443;BME280;74681;0.000;0.000;2024-01-27T00:38:48;99262.94;;;22.22;50.70
84443;BME280;74681;0.000;0.000;2024-01-27T00:41:17;99262.13;;;22.21;50.58
84443;BME280;74681;0.000;0.000;2024-01-27T00:43:42;99267.59;;;22.21;50.38
84443;BME280;74681;0.000;0.000;2024-01-27T00:46:08;99259.41;;;22.21;50.64
84443;BME280;74681;0.000;0.000;2024-01-27T00:48:33;99266.78;;;22.21;50.52
84443;BME280;74681;0.000;0.000;2024-01-27T00:50:58;99259.41;;;22.21;50.37
84443;BME280;74681;0.000;0.000;2024-01-27T00:53:24;99272.25;;;22.21;50.45
84443;BME280;74681;0.000;0.000;2024-01-27T00:55:49;99262.41;;;22.20;50.44
84443;BME280;74681;0.000;0.000;2024-01-27T00:58:15;99266.25;;;22.19;50.45
84443;BME280;74681;0.000;0.000;2024-01-27T01:00:41;99270.59;;;22.20;50.38
84443;BME280;74681;0.000;0.000;2024-01-27T01:03:06;99274.47;;;22.19;50.25
84443;BME280;74681;0.000;0.000;2024-01-27T01:05:31;99288.13;;;22.19;50.44
84443;BME280;74681;0.000;0.000;2024-01-27T01:07:57;99273.34;;;22.20;50.44
84443;BME280;74681;0.000;0.000;2024-01-27T01:10:22;99281.53;;;22.20;50.31
84443;BME280;74681;0.000;0.000;2024-01-27T01:12:47;99277.19;;;22.19;50.44
84443;BME280;74681;0.000;0.000;2024-01-27T01:15:13;99278.28;;;22.18;50.38
84443;BME280;74681;0.000;0.000;2024-01-27T01:17:38;99270.09;;;22.18;50.37
84443;BME280;74681;0.000;0.000;2024-01-27T01:20:04;99270.91;;;22.18;50.31
84443;BME280;74681;0.000;0.000;2024-01-27T01:22:29;99267.34;;;22.18;50.33
84443;BME280;74681;0.000;0.000;2024-01-27T01:24:54;99258.31;;;22.17;50.23
84443;BME280;74681;0.000;0.000;2024-01-27T01:27:20;99269.25;;;22.17;50.34
84443;BME280;74681;0.000;0.000;2024-01-27T01:29:46;99271.16;;;22.17;50.31
84443;BME280;74681;0.000;0.000;2024-01-27T01:32:11;99273.91;;;22.17;50.19
84443;BME280;74681;0.000;0.000;2024-01-27T01:34:36;99278.28;;;22.18;50.22
84443;BME280;74681;0.000;0.000;2024-01-27T01:37:02;99275.84;;;22.16;50.11
84443;BME280;74681;0.000;0.000;2024-01-27T01:39:27;99266.00;;;22.15;50.21
84443;BME280;74681;0.000;0.000;2024-01-27T01:41:53;99273.38;;;22.15;50.12
84443;BME280;74681;0.000;0.000;2024-01-27T01:44:18;99283.22;;;22.16;50.11
84443;BME280;74681;0.000;0.000;2024-01-27T01:46:44;99290.63;;;22.15;50.25
84443;BME280;74681;0.000;0.000;2024-01-27T01:49:09;99307.03;;;22.15;50.05
84443;BME280;74681;0.000;0.000;2024-01-27T01:51:35;99311.69;;;22.15;50.01
84443;BME280;74681;0.000;0.000;2024-01-27T01:54:00;99321.78;;;22.14;50.14
84443;BME280;74681;0.000;0.000;2024-01-27T01:56:26;99323.44;;;22.15;50.02
84443;BME280;74681;0.000;0.000;2024-01-27T01:58:52;99324.53;;;22.14;49.99
84443;BME280;74681;0.000;0.000;2024-01-27T02:01:34;99330.00;;;22.14;50.11
84443;BME280;74681;0.000;0.000;2024-01-27T02:03:59;99335.47;;;22.14;49.88
84443;BME280;74681;0.000;0.000;2024-01-27T02:06:25;99334.69;;;22.14;50.12
84443;BME280;74681;0.000;0.000;2024-01-27T02:08:50;99341.25;;;22.13;49.90
84443;BME280;74681;0.000;0.000;2024-01-27T02:11:16;99331.94;;;22.14;49.92
84443;BME280;74681;0.000;0.000;2024-01-27T02:13:41;99339.31;;;22.13;49.78
84443;BME280;74681;0.000;0.000;2024-01-27T02:16:06;99327.56;;;22.13;49.91
84443;BME280;74681;0.000;0.000;2024-01-27T02:18:32;99331.13;;;22.13;49.88
84443;BME280;74681;0.000;0.000;2024-01-27T02:20:57;99331.38;;;22.12;49.88
84443;BME280;74681;0.000;0.000;2024-01-27T02:23:22;99333.03;;;22.13;50.00
84443;BME280;74681;0.000;0.000;2024-01-27T02:25:48;99340.41;;;22.12;49.89
84443;BME280;74681;0.000;0.000;2024-01-27T02:28:15;99334.13;;;22.12;49.88
84443;BME280;74681;0.000;0.000;2024-01-27T02:30:40;99341.50;;;22.11;49.86
84443;BME280;74681;0.000;0.000;2024-01-27T02:33:05;99348.91;;;22.11;49.71
84443;BME280;74681;0.000;0.000;2024-01-27T02:35:31;99348.91;;;22.11;49.80
84443;BME280;74681;0.000;0.000;2024-01-27T02:37:56;99359.03;;;22.10;49.75
84443;BME280;74681;0.000;0.000;2024-01-27T02:40:21;99354.38;;;22.11;49.91
84443;BME280;74681;0.000;0.000;2024-01-27T02:42:47;99376.25;;;22.11;49.75
84443;BME280;74681;0.000;0.000;2024-01-27T02:45:12;99366.41;;;22.10;49.83
84443;BME280;74681;0.000;0.000;2024-01-27T02:47:38;99371.06;;;22.09;49.83
84443;BME280;74681;0.000;0.000;2024-01-27T02:50:03;99384.72;;;22.09;49.67
84443;BME280;74681;0.000;0.000;2024-01-27T02:52:29;99392.94;;;22.09;49.71
84443;BME280;74681;0.000;0.000;2024-01-27T02:54:55;99376.81;;;22.08;49.77
84443;BME280;74681;0.000;0.000;2024-01-27T02:57:20;99379.56;;;22.08;49.61
84443;BME280;74681;0.000;0.000;2024-01-27T02:59:45;99381.19;;;22.09;49.72
84443;BME280;74681;0.000;0.000;2024-01-27T03:02:11;99386.94;;;22.07;49.74
84443;BME280;74681;0.000;0.000;2024-01-27T03:04:36;99394.84;;;22.09;49.62
84443;BME280;74681;0.000;0.000;2024-01-27T03:07:02;99401.44;;;22.08;49.60
84443;BME280;74681;0.000;0.000;2024-01-27T03:09:27;99406.09;;;22.07;49.53
84443;BME280;74681;0.000;0.000;2024-01-27T03:11:53;99427.13;;;22.07;49.60
84443;BME280;74681;0.000;0.000;2024-01-27T03:14:18;99428.50;;;22.09;49.61
84443;BME280;74681;0.000;0.000;2024-01-27T03:16:43;99429.06;;;22.06;49.41
84443;BME280;74681;0.000;0.000;2024-01-27T03:19:18;99445.47;;;22.06;49.48
84443;BME280;74681;0.000;0.000;2024-01-27T03:21:43;99441.91;;;22.05;49.49
84443;BME280;74681;0.000;0.000;2024-01-27T03:24:08;99448.19;;;22.06;49.46
84443;BME280;74681;0.000;0.000;2024-01-27T03:26:34;99461.88;;;22.06;49.53
84443;BME280;74681;0.000;0.000;2024-01-27T03:28:59;99469.25;;;22.05;49.51
84443;BME280;74681;0.000;0.000;2024-01-27T03:31:31;99481.31;;;22.04;49.51
84443;BME280;74681;0.000;0.000;2024-01-27T03:33:58;99485.94;;;22.04;49.43
84443;BME280;74681;0.000;0.000;2024-01-27T03:36:23;99491.41;;;22.04;49.41
84443;BME280;74681;0.000;0.000;2024-01-27T03:38:49;99496.88;;;22.04;49.36
84443;BME280;74681;0.000;0.000;2024-01-27T03:41:14;99507.00;;;22.03;49.21
84443;BME280;74681;0.000;0.000;2024-01-27T03:43:39;99515.19;;;22.03;49.39
84443;BME280;74681;0.000;0.000;2024-01-27T03:46:04;99527.25;;;22.02;49.20
84443;BME280;74681;0.000;0.000;2024-01-27T03:48:30;99531.63;;;22.03;49.32
84443;BME280;74681;0.000;0.000;2024-01-27T03:50:55;99542.56;;;22.03;49.25
84443;BME280;74681;0.000;0.000;2024-01-27T03:53:20;99542.56;;;22.03;49.42
84443;BME280;74681;0.000;0.000;2024-01-27T03:55:46;99535.47;;;22.02;49.27
84443;BME280;74681;0.000;0.000;2024-01-27T03:58:11;99548.84;;;22.04;49.33
84443;BME280;74681;0.000;0.000;2024-01-27T04:00:36;99544.47;;;22.03;49.33
84443;BME280;74681;0.000;0.000;2024-01-27T04:03:02;99548.84;;;22.04;49.18
84443;BME280;74681;0.000;0.000;2024-01-27T04:05:30;99560.06;;;22.02;49.30
84443;BME280;74681;0.000;0.000;2024-01-27T04:07:56;99568.28;;;22.02;49.23
84443;BME280;74681;0.000;0.000;2024-01-27T04:10:21;99568.28;;;22.02;49.20
84443;BME280;74681;0.000;0.000;2024-01-27T04:12:47;99587.41;;;22.02;49.36
84443;BME280;74681;0.000;0.000;2024-01-27T04:15:12;99586.31;;;22.03;49.40
84443;BME280;74681;0.000;0.000;2024-01-27T04:17:38;99600.81;;;22.04;49.43
84443;BME280;74681;0.000;0.000;2024-01-27T04:20:05;99593.44;;;22.04;49.50
84443;BME280;74681;0.000;0.000;2024-01-27T04:22:30;99617.75;;;22.06;49.34
84443;BME280;74681;0.000;0.000;2024-01-27T04:24:56;99628.69;;;22.06;49.48
84443;BME280;74681;0.000;0.000;2024-01-27T04:27:21;99629.50;;;22.07;49.66
84443;BME280;74681;0.000;0.000;2024-01-27T04:29:46;99646.75;;;22.07;49.63
84443;BME280;74681;0.000;0.000;2024-01-27T04:32:12;99653.03;;;22.08;49.59
84443;BME280;74681;0.000;0.000;2024-01-27T04:34:38;99657.41;;;22.09;49.67
84443;BME280;74681;0.000;0.000;2024-01-27T04:37:03;99654.66;;;22.09;49.90
84443;BME280;74681;0.000;0.000;2024-01-27T04:39:29;99660.69;;;22.11;49.78
84443;BME280;74681;0.000;0.000;2024-01-27T04:41:54;99643.72;;;22.09;49.78
84443;BME280;74681;0.000;0.000;2024-01-27T04:44:20;99651.94;;;22.09;49.81
84443;BME280;74681;0.000;0.000;2024-01-27T04:46:46;99659.03;;;22.10;49.93
84443;BME280;74681;0.000;0.000;2024-01-27T04:49:11;99654.41;;;22.10;50.11
84443;BME280;74681;0.000;0.000;2024-01-27T04:51:36;99656.31;;;22.10;49.99
84443;BME280;74681;0.000;0.000;2024-01-27T04:54:02;99668.06;;;22.10;50.16
84443;BME280;74681;0.000;0.000;2024-01-27T04:56:27;99681.75;;;22.10;50.07
84443;BME280;74681;0.000;0.000;2024-01-27T04:58:53;99688.84;;;22.11;50.09
84443;BME280;74681;0.000;0.000;2024-01-27T05:01:18;99678.72;;;22.12;50.00
84443;BME280;74681;0.000;0.000;2024-01-27T05:03:43;99695.13;;;22.12;50.03
84443;BME280;74681;0.000;0.000;2024-01-27T05:06:09;99704.16;;;22.12;50.19
84443;BME280;74681;0.000;0.000;2024-01-27T05:08:35;99706.91;;;22.12;50.15
84443;BME280;74681;0.000;0.000;2024-01-27T05:11:00;99717.84;;;22.12;50.19
84443;BME280;74681;0.000;0.000;2024-01-27T05:13:25;99714.28;;;22.12;50.12
84443;BME280;74681;0.000;0.000;2024-01-27T05:15:51;99712.38;;;22.12;50.16
84443;BME280;74681;0.000;0.000;2024-01-27T05:18:16;99711.56;;;22.12;50.15
84443;BME280;74681;0.000;0.000;2024-01-27T05:20:41;99732.34;;;22.13;50.25
84443;BME280;74681;0.000;0.000;2024-01-27T05:23:07;99731.53;;;22.12;50.09
84443;BME280;74681;0.000;0.000;2024-01-27T05:25:32;99736.16;;;22.12;50.14
84443;BME280;74681;0.000;0.000;2024-01-27T05:27:58;99737.00;;;22.12;50.15
84443;BME280;74681;0.000;0.000;2024-01-27T05:30:23;99733.44;;;22.12;50.17
84443;BME280;74681;0.000;0.000;2024-01-27T05:32:48;99737.00;;;22.12;50.19
84443;BME280;74681;0.000;0.000;2024-01-27T05:35:14;99743.28;;;22.13;50.08
84443;BME280;74681;0.000;0.000;2024-01-27T05:37:39;99734.25;;;22.12;50.09
84443;BME280;74681;0.000;0.000;2024-01-27T05:40:05;99744.38;;;22.12;50.14
84443;BME280;74681;0.000;0.000;2024-01-27T05:42:31;99741.38;;;22.13;50.25
84443;BME280;74681;0.000;0.000;2024-01-27T05:44:56;99747.94;;;22.12;50.29
84443;BME280;74681;0.000;0.000;2024-01-27T05:47:22;99749.84;;;22.12;50.15
84443;BME280;74681;0.000;0.000;2024-01-27T05:49:47;99750.66;;;22.12;50.00
84443;BME280;74681;0.000;0.000;2024-01-27T05:52:13;99760.53;;;22.13;50.12
84443;BME280;74681;0.000;0.000;2024-01-27T05:54:39;99762.44;;;22.13;50.06
84443;BME280;74681;0.000;0.000;2024-01-27T05:57:05;99771.47;;;22.13;50.06
84443;BME280;74681;0.000;0.000;2024-01-27T05:59:30;99760.53;;;22.13;50.16
84443;BME280;74681;0.000;0.000;2024-01-27T06:01:55;99759.69;;;22.13;50.03
84443;BME280;74681;0.000;0.000;2024-01-27T06:04:23;99758.88;;;22.12;50.17
84443;BME280;74681;0.000;0.000;2024-01-27T06:06:48;99751.50;;;22.13;50.15
84443;BME280;74681;0.000;0.000;2024-01-27T06:09:13;99740.56;;;22.13;50.01
84443;BME280;74681;0.000;0.000;2024-01-27T06:11:39;99743.28;;;22.13;50.15
84443;BME280;74681;0.000;0.000;2024-01-27T06:14:04;99741.38;;;22.13;50.08
84443;BME280;74681;0.000;0.000;2024-01-27T06:16:29;99744.13;;;22.13;50.33
84443;BME280;74681;0.000;0.000;2024-01-27T06:18:55;99746.84;;;22.13;50.13
84443;BME280;74681;0.000;0.000;2024-01-27T06:21:21;99766.00;;;22.13;50.18
84443;BME280;74681;0.000;0.000;2024-01-27T06:23:46;99764.09;;;22.14;50.16
84443;BME280;74681;0.000;0.000;2024-01-27T06:26:12;99752.31;;;22.13;50.24
84443;BME280;74681;0.000;0.000;2024-01-27T06:28:38;99765.16;;;22.13;50.09
84443;BME280;74681;0.000;0.000;2024-01-27T06:31:04;99772.28;;;22.14;50.20
84443;BME280;74681;0.000;0.000;2024-01-27T06:33:30;99769.56;;;22.14;50.13
84443;BME280;74681;0.000;0.000;2024-01-27T06:35:56;99773.09;;;22.14;50.24
84443;BME280;74681;0.000;0.000;2024-01-27T06:38:22;99769.56;;;22.14;50.18
84443;BME280;74681;0.000;0.000;2024-01-27T06:40:47;99779.66;;;22.13;50.28
84443;BME280;74681;0.000;0.000;2024-01-27T06:43:13;99782.41;;;22.13;50.27
84443;BME280;74681;0.000;0.000;2024-01-27T06:45:39;99804.28;;;22.13;50.16
84443;BME280;74681;0.000;0.000;2024-01-27T06:48:04;99793.34;;;22.13;50.43
84443;BME280;74681;0.000;0.000;2024-01-27T06:50:30;99803.19;;;22.14;50.25
84443;BME280;74681;0.000;0.000;2024-01-27T06:52:55;99815.78;;;22.15;50.46
84443;BME280;74681;0.000;0.000;2024-01-27T08:11:26;99870.78;;;22.39;53.34
84443;BME280;74681;0.000;0.000;2024-01-27T08:13:52;99880.09;;;22.38;53.07
84443;BME280;74681;0.000;0.000;2024-01-27T08:16:17;99883.91;;;22.37;53.01
84443;BME280;74681;0.000;0.000;2024-01-27T08:18:42;99895.69;;;22.37;53.06
84443;BME280;74681;0.000;0.000;2024-01-27T08:21:09;99896.75;;;22.36;52.83
84443;BME280;74681;0.000;0.000;2024-01-27T08:23:35;99895.97;;;22.36;52.85
84443;BME280;74681;0.000;0.000;2024-01-27T08:26:00;99908.81;;;22.35;52.79
84443;BME280;74681;0.000;0.000;2024-01-27T08:28:26;99902.50;;;22.35;52.63
84443;BME280;74681;0.000;0.000;2024-01-27T08:30:51;99915.38;;;22.34;52.56
84443;BME280;74681;0.000;0.000;2024-01-27T08:33:17;99897.88;;;22.35;52.61
84443;BME280;74681;0.000;0.000;2024-01-27T08:35:42;99903.34;;;22.35;52.63
84443;BME280;74681;0.000;0.000;2024-01-27T08:38:08;99912.38;;;22.36;52.43
84443;BME280;74681;0.000;0.000;2024-01-27T08:40:34;99908.00;;;22.35;52.19
84443;BME280;74681;0.000;0.000;2024-01-27T08:43:00;99904.97;;;22.36;52.11
84443;BME280;74681;0.000;0.000;2024-01-27T08:45:26;99918.94;;;22.35;52.21
84443;BME280;74681;0.000;0.000;2024-01-27T08:47:51;99920.59;;;22.36;52.24
84443;BME280;74681;0.000;0.000;2024-01-27T08:50:16;99925.22;;;22.35;52.35
84443;BME280;74681;0.000;0.000;2024-01-27T08:52:42;99914.28;;;22.35;52.04
84443;BME280;74681;0.000;0.000;2024-01-27T08:55:07;99921.66;;;22.35;52.17
84443;BME280;74681;0.000;0.000;2024-01-27T08:57:33;99922.50;;;22.35;51.95
84443;BME280;74681;0.000;0.000;2024-01-27T08:59:58;99929.88;;;22.35;51.95
84443;BME280;74681;0.000;0.000;2024-01-27T09:02:23;99930.72;;;22.35;52.22
84443;BME280;74681;0.000;0.000;2024-01-27T09:04:49;99933.44;;;22.35;52.18
84443;BME280;74681;0.000;0.000;2024-01-27T09:07:14;99930.41;;;22.37;52.20
84443;BME280;74681;0.000;0.000;2024-01-27T09:09:39;99941.38;;;22.37;52.05
84443;BME280;74681;0.000;0.000;2024-01-27T09:12:05;99915.66;;;22.38;52.26
84443;BME280;74681;0.000;0.000;2024-01-27T09:14:31;99926.59;;;22.38;52.42
84443;BME280;74681;0.000;0.000;2024-01-27T09:16:58;99932.06;;;22.38;52.14
84443;BME280;74681;0.000;0.000;2024-01-27T09:19:24;99936.47;;;22.39;52.30
84443;BME280;74681;0.000;0.000;2024-01-27T09:21:49;99932.91;;;22.38;52.37
84443;BME280;74681;0.000;0.000;2024-01-27T09:24:14;99941.94;;;22.39;52.25
84443;BME280;74681;0.000;0.000;2024-01-27T09:26:40;99952.88;;;22.39;52.06
84443;BME280;74681;0.000;0.000;2024-01-27T09:29:05;99952.88;;;22.39;51.97
84443;BME280;74681;0.000;0.000;2024-01-27T09:31:30;99950.94;;;22.39;51.90
84443;BME280;74681;0.000;0.000;2024-01-27T09:33:56;99950.16;;;22.39;51.87
84443;BME280;74681;0.000;0.000;2024-01-27T09:36:21;99957.53;;;22.38;51.89
84443;BME280;74681;0.000;0.000;2024-01-27T09:38:47;99958.34;;;22.39;51.85
84443;BME280;74681;0.000;0.000;2024-01-27T09:41:13;99962.19;;;22.38;52.00
84443;BME280;74681;0.000;0.000;2024-01-27T09:43:38;99957.53;;;22.38;51.95
84443;BME280;74681;0.000;0.000;2024-01-27T09:46:05;99952.06;;;22.38;51.92
84443;BME280;74681;0.000;0.000;2024-01-27T09:48:30;99953.97;;;22.38;51.90
84443;BME280;74681;0.000;0.000;2024-01-27T09:50:58;99955.63;;;22.39;51.81
84443;BME280;74681;0.000;0.000;2024-01-27T09:53:23;99948.22;;;22.39;51.65
84443;BME280;74681;0.000;0.000;2024-01-27T09:55:49;99953.69;;;22.39;51.91
84443;BME280;74681;0.000;0.000;2024-01-27T09:58:15;99946.59;;;22.38;52.13
84443;BME280;74681;0.000;0.000;2024-01-27T10:00:41;99945.47;;;22.39;51.73
84443;BME280;74681;0.000;0.000;2024-01-27T10:03:06;99935.63;;;22.38;51.76
84443;BME280;74681;0.000;0.000;2024-01-27T10:05:32;99932.91;;;22.38;51.68
84443;BME280;74681;0.000;0.000;2024-01-27T10:07:59;99936.47;;;22.39;51.69
84443;BME280;74681;0.000;0.000;2024-01-27T10:10:24;99932.91;;;22.38;51.59
84443;BME280;74681;0.000;0.000;2024-01-27T10:12:49;99927.44;;;22.38;51.57
84443;BME280;74681;0.000;0.000;2024-01-27T10:15:21;99921.97;;;22.38;51.60
84443;BME280;74681;0.000;0.000;2024-01-27T10:17:47;99920.06;;;22.39;51.57
84443;BME280;74681;0.000;0.000;2024-01-27T10:20:13;99926.59;;;22.38;51.43
84443;BME280;74681;0.000;0.000;2024-01-27T10:22:43;99916.47;;;22.38;51.56
84443;BME280;74681;0.000;0.000;2024-01-27T10:25:10;99914.56;;;22.39;51.42
84443;BME280;74681;0.000;0.000;2024-01-27T10:27:35;99915.66;;;22.38;51.32
84443;BME280;74681;0.000;0.000;2024-01-27T10:30:01;99906.38;;;22.39;51.47
84443;BME280;74681;0.000;0.000;2024-01-27T10:32:27;99903.63;;;22.39;51.47
84443;BME280;74681;0.000;0.000;2024-01-27T10:35:05;99889.13;;;22.38;51.26
84443;BME280;74681;0.000;0.000;2024-01-27T10:37:30;99895.41;;;22.39;51.28
84443;BME280;74681;0.000;0.000;2024-01-27T10:40:08;99889.13;;;22.38;51.35
84443;BME280;74681;0.000;0.000;2024-01-27T10:42:34;99884.47;;;22.39;51.25
84443;BME280;74681;0.000;0.000;2024-01-27T10:45:01;99882.53;;;22.39;51.32
84443;BME280;74681;0.000;0.000;2024-01-27T10:47:27;99872.41;;;22.40;51.33
84443;BME280;74681;0.000;0.000;2024-01-27T10:49:54;99876.25;;;22.39;51.28
84443;BME280;74681;0.000;0.000;2024-01-27T10:52:20;99886.91;;;22.40;51.26
84443;BME280;74681;0.000;0.000;2024-01-27T10:54:47;99877.06;;;22.39;51.29
84443;BME280;74681;0.000;0.000;2024-01-27T10:57:13;99890.50;;;22.41;51.29
84443;BME280;74681;0.000;0.000;2024-01-27T10:59:40;99888.84;;;22.40;51.24
84443;BME280;74681;0.000;0.000;2024-01-27T11:02:07;99894.31;;;22.40;51.35
84443;BME280;74681;0.000;0.000;2024-01-27T11:04:36;99887.75;;;22.41;51.20
84443;BME280;74681;0.000;0.000;2024-01-27T11:07:04;99896.22;;;22.39;50.95
84443;BME280;74681;0.000;0.000;2024-01-27T11:09:30;99890.50;;;22.41;51.19
84443;BME280;74681;0.000;0.000;2024-01-27T11:11:56;99910.72;;;22.40;51.07
84443;BME280;74681;0.000;0.000;2024-01-27T11:14:22;99902.50;;;22.40;51.04
84443;BME280;74681;0.000;0.000;2024-01-27T11:16:48;99904.41;;;22.39;51.10
84443;BME280;74681;0.000;0.000;2024-01-27T11:19:19;99916.19;;;22.40;51.16
84443;BME280;74681;0.000;0.000;2024-01-27T11:21:45;99910.72;;;22.40;51.13
84443;BME280;74681;0.000;0.000;2024-01-27T11:24:17;99910.72;;;22.40;51.12
84443;BME280;74681;0.000;0.000;2024-01-27T11:26:43;99900.59;;;22.40;51.04
84443;BME280;74681;0.000;0.000;2024-01-27T11:29:08;99904.41;;;22.39;51.14
84443;BME280;74681;0.000;0.000;2024-01-27T11:31:51;99907.16;;;22.39;51.20
84443;BME280;74681;0.000;0.000;2024-01-27T11:34:17;99898.16;;;22.39;50.89
84443;BME280;74681;0.000;0.000;2024-01-27T11:36:45;99896.50;;;22.38;50.90
84443;BME280;74681;0.000;0.000;2024-01-27T11:42:07;99890.19;;;22.37;50.99
84443;BME280;74681;0.000;0.000;2024-01-27T11:44:35;99893.75;;;22.38;50.78
84443;BME280;74681;0.000;0.000;2024-01-27T11:47:01;99891.84;;;22.38;50.83
84443;BME280;74681;0.000;0.000;2024-01-27T11:49:26;99899.25;;;22.38;50.86
84443;BME280;74681;0.000;0.000;2024-01-27T11:51:52;99902.22;;;22.36;50.88
84443;BME280;74681;0.000;0.000;2024-01-27T11:54:17;99909.09;;;22.39;51.05
84443;BME280;74681;0.000;0.000;2024-01-27T11:56:43;99917.03;;;22.40;51.39
84443;BME280;74681;0.000;0.000;2024-01-27T11:59:09;99919.22;;;22.43;51.50
84443;BME280;74681;0.000;0.000;2024-01-27T12:01:36;99924.41;;;22.45;51.45
84443;BME280;74681;0.000;0.000;2024-01-27T12:04:02;99926.88;;;22.46;51.63
84443;BME280;74681;0.000;0.000;2024-01-27T12:06:28;99928.50;;;22.47;51.98
84443;BME280;74681;0.000;0.000;2024-01-27T12:08:55;99928.81;;;22.51;52.04
84443;BME280;74681;0.000;0.000;2024-01-27T12:11:23;99935.94;;;22.52;52.27
84443;BME280;74681;0.000;0.000;2024-01-27T12:13:48;99941.94;;;22.54;52.49
84443;BME280;74681;0.000;0.000;2024-01-27T12:16:14;99944.69;;;22.54;52.44
84443;BME280;74681;0.000;0.000;2024-01-27T12:18:40;99937.00;;;22.56;52.57
84443;BME280;74681;0.000;0.000;2024-01-27T12:21:05;99957.81;;;22.57;52.79
84443;BME280;74681;0.000;0.000;2024-01-27T12:23:30;99936.47;;;22.59;52.74
84443;BME280;74681;0.000;0.000;2024-01-27T12:25:56;99944.69;;;22.59;52.89
84443;BME280;74681;0.000;0.000;2024-01-27T12:28:22;99927.44;;;22.58;52.52
84443;BME280;74681;0.000;0.000;2024-01-27T12:30:48;99933.47;;;22.60;52.76
84443;BME280;74681;0.000;0.000;2024-01-27T12:33:14;99929.63;;;22.61;53.12
84443;BME280;74681;0.000;0.000;2024-01-27T12:35:39;99930.75;;;22.60;53.00
84443;BME280;74681;0.000;0.000;2024-01-27T12:38:05;99933.47;;;22.60;52.92
84443;BME280;74681;0.000;0.000;2024-01-27T12:40:31;99928.81;;;22.61;52.98
84443;BME280;74681;0.000;0.000;2024-01-27T12:42:57;99926.63;;;22.63;53.12
84443;BME280;74681;0.000;0.000;2024-01-27T12:45:23;99929.38;;;22.63;53.42
84443;BME280;74681;0.000;0.000;2024-01-27T12:47:48;99916.25;;;22.65;53.41
84443;BME280;74681;0.000;0.000;2024-01-27T12:50:14;99920.06;;;22.64;53.57
84443;BME280;74681;0.000;0.000;2024-01-27T12:52:40;99925.53;;;22.64;53.68
84443;BME280;74681;0.000;0.000;2024-01-27T12:55:05;99919.00;;;22.65;54.04
84443;BME280;74681;0.000;0.000;2024-01-27T12:57:31;99926.13;;;22.66;53.89
84443;BME280;74681;0.000;0.000;2024-01-27T12:59:56;99891.34;;;22.67;54.14
84443;BME280;74681;0.000;0.000;2024-01-27T13:02:21;99897.91;;;22.66;54.17
84443;BME280;74681;0.000;0.000;2024-01-27T13:04:47;99885.06;;;22.66;54.35
84443;BME280;74681;0.000;0.000;2024-01-27T13:07:12;99871.06;;;22.68;54.36
84443;BME280;74681;0.000;0.000;2024-01-27T13:09:39;99871.91;;;22.68;54.57
84443;BME280;74681;0.000;0.000;2024-01-27T13:12:04;99871.06;;;22.68;54.33
84443;BME280;74681;0.000;0.000;2024-01-27T13:14:30;99865.06;;;22.66;54.49
84443;BME280;74681;0.000;0.000;2024-01-27T13:16:55;99853.28;;;22.65;54.18
84443;BME280;74681;0.000;0.000;2024-01-27T13:19:22;99846.16;;;22.64;54.15
84443;BME280;74681;0.000;0.000;2024-01-27T13:21:47;99839.03;;;22.63;53.92
84443;BME280;74681;0.000;0.000;2024-01-27T13:24:12;99838.22;;;22.62;53.84
84443;BME280;74681;0.000;0.000;2024-01-27T13:26:38;99858.44;;;22.61;53.59
84443;BME280;74681;0.000;0.000;2024-01-27T13:29:06;99862.84;;;22.62;53.55
84443;BME280;74681;0.000;0.000;2024-01-27T13:31:32;99867.50;;;22.62;53.67
84443;BME280;74681;0.000;0.000;2024-01-27T13:33:58;99863.66;;;22.63;53.96
84443;BME280;74681;0.000;0.000;2024-01-27T13:36:24;99866.41;;;22.63;53.95
84443;BME280;74681;0.000;0.000;2024-01-27T13:38:49;99865.56;;;22.62;54.04
84443;BME280;74681;0.000;0.000;2024-01-27T13:41:15;99870.22;;;22.62;53.80
84443;BME280;74681;0.000;0.000;2024-01-27T13:43:41;99883.69;;;22.64;53.92
84443;BME280;74681;0.000;0.000;2024-01-27T13:46:06;99877.09;;;22.65;54.13
84443;BME280;74681;0.000;0.000;2024-01-27T13:48:32;99881.50;;;22.66;54.10
84443;BME280;74681;0.000;0.000;2024-01-27T13:50:57;99895.19;;;22.66;54.56
84443;BME280;74681;0.000;0.000;2024-01-27T13:53:23;99890.53;;;22.66;54.70
84443;BME280;74681;0.000;0.000;2024-01-27T13:55:48;99909.69;;;22.66;54.75
84443;BME280;74681;0.000;0.000;2024-01-27T13:58:14;99907.78;;;22.67;54.84
84443;BME280;74681;0.000;0.000;2024-01-27T14:00:39;99915.72;;;22.68;54.79
84443;BME280;74681;0.000;0.000;2024-01-27T14:03:04;99921.19;;;22.68;55.01
84443;BME280;74681;0.000;0.000;2024-01-27T14:05:30;99933.22;;;22.67;54.80
84443;BME280;74681;0.000;0.000;2024-01-27T14:07:55;99929.41;;;22.68;54.84
84443;BME280;74681;0.000;0.000;2024-01-27T14:10:21;99937.91;;;22.67;54.89
84443;BME280;74681;0.000;0.000;2024-01-27T14:12:46;99935.16;;;22.67;54.92
84443;BME280;74681;0.000;0.000;2024-01-27T14:15:12;99943.91;;;22.69;55.23
84443;BME280;74681;0.000;0.000;2024-01-27T14:17:37;99936.53;;;22.69;55.30
84443;BME280;74681;0.000;0.000;2024-01-27T14:20:03;99945.56;;;22.70;55.24
84443;BME280;74681;0.000;0.000;2024-01-27T14:22:29;99937.59;;;22.68;55.27